Terminal Aerodrome Forecast
Issued by NWS

Home | Current Version | Previous Version | Text Only | Print | Product List | Glossary On
Versions: 1 2 3 4 5 6 7 8 9 10 11 12 13 14 15 16 17 18 19 20 21 22 23 24 25 26 27 28 29 30 31 32
000
FTAK31 PANC 050101 AAA
TAFASD
TAF AMD
PASD 050101Z 0501/0524 VRB05KT P6SM SCT025 BKN035
      TEMPO 0501/0503 -SHRA BKN025
     FM050300 18011KT P6SM -RA SCT015 BKN025
     FM050600 18015G22KT P6SM -RA SCT007 BKN015
     FM051700 21012G20KT P6SM -SHRA OVC025
     FM052200 25015G25KT P6SM VCSH SCT020 BKN040
      AMD LTD TO CLD VIS AND WIND=

USA.gov is the U.S. government's official web portal to all federal, state and local government web resources and services.